Time;durP1;ratioP1;P1;durP2;ratioP2;P2;SDS_P1;SDS_P2;PMS_P1;PMS_P2;Temp;Humidity;BMP_temperature;BMP_pressure;BME280_temperature;BME280_humidity;BME280_pressure;Samples;Min_cycle;Max_cycle;Signal;HPM_P1;HPM_P2
2024/02/21 00:01:05;;;;;;;8.68;5.18;;;;;;;;;;5048677;28;20716;-81
2024/02/21 00:03:32;;;;;;;6.85;4.57;;;6.10;99.90;;;;;;5042874;28;20238;-80
2024/02/21 00:05:59;;;;;;;5.90;4.45;;;6.20;99.90;;;;;;5048514;28;20200;-80
2024/02/21 00:08:26;;;;;;;7.40;4.53;;;;;;;;;;5040713;28;20262;-81
2024/02/21 00:10:53;;;;;;;7.07;4.93;;;;;;;;;;5042628;28;20195;-80
2024/02/21 00:13:20;;;;;;;7.80;4.90;;;;;;;;;;5046487;28;20326;-80
2024/02/21 00:15:48;;;;;;;7.47;4.32;;;5.90;99.90;;;;;;5048239;28;20568;-80
2024/02/21 00:18:15;;;;;;;7.95;4.78;;;;;;;;;;5047562;28;20204;-81
2024/02/21 00:20:43;;;;;;;5.65;4.60;;;;;;;;;;5047953;28;20223;-81
2024/02/21 00:23:10;;;;;;;7.85;4.93;;;;;;;;;;5042193;28;20238;-82
2024/02/21 00:25:37;;;;;;;8.63;3.83;;;6.20;99.90;;;;;;5040165;28;20202;-80
2024/02/21 00:28:05;;;;;;;8.25;4.30;;;;;;;;;;5047887;28;20282;-80
2024/02/21 00:30:32;;;;;;;7.53;4.45;;;;;;;;;;5044054;28;20205;-81
2024/02/21 00:33:02;;;;;;;9.43;3.90;;;6.20;99.90;;;;;;5047652;28;20202;-80
2024/02/21 00:35:29;;;;;;;7.00;4.20;;;;;;;;;;5047308;28;20207;-81
2024/02/21 00:37:57;;;;;;;6.18;3.95;;;;;;;;;;5047494;28;20192;-81
2024/02/21 00:40:23;;;;;;;6.88;3.63;;;6.30;99.90;;;;;;5044085;28;20280;-81
2024/02/21 00:42:50;;;;;;;13.18;4.70;;;6.30;99.90;;;;;;5041186;28;20238;-80
2024/02/21 00:45:17;;;;;;;6.97;3.80;;;6.30;99.90;;;;;;5040404;28;20253;-81
2024/02/21 00:47:44;;;;;;;4.47;3.83;;;6.20;99.90;;;;;;5047145;28;20192;-81
2024/02/21 00:50:12;;;;;;;8.73;4.32;;;6.20;99.90;;;;;;5045553;28;20255;-80
2024/02/21 00:52:39;;;;;;;6.60;4.53;;;;;;;;;;5046378;28;20200;-81
2024/02/21 00:55:07;;;;;;;5.47;3.80;;;6.40;99.90;;;;;;5041047;28;21371;-81
2024/02/21 00:57:34;;;;;;;7.13;4.70;;;6.10;99.90;;;;;;5047055;28;20200;-81
2024/02/21 01:00:01;;;;;;;4.40;4.00;;;;;;;;;;5051462;28;20288;-80
2024/02/21 01:02:28;;;;;;;4.00;3.08;;;;;;;;;;5050056;28;20231;-81
2024/02/21 01:04:55;;;;;;;12.35;3.72;;;;;;;;;;5050061;28;20716;-80
2024/02/21 01:07:24;;;;;;;9.88;3.88;;;;;;;;;;5049268;28;20226;-80
2024/02/21 01:09:51;;;;;;;5.93;4.05;;;5.90;99.90;;;;;;5041998;28;20228;-80
2024/02/21 01:12:18;;;;;;;13.02;5.50;;;;;;;;;;5047511;28;20200;-80
2024/02/21 01:14:46;;;;;;;6.57;3.92;;;;;;;;;;5043204;28;20208;-81
2024/02/21 01:17:12;;;;;;;7.28;3.80;;;6.40;99.90;;;;;;5049686;28;20208;-80
2024/02/21 01:19:39;;;;;;;5.90;4.43;;;;;;;;;;5048785;28;20687;-80
2024/02/21 01:22:07;;;;;;;6.13;4.05;;;;;;;;;;5050448;28;20222;-80
2024/02/21 01:24:35;;;;;;;7.60;4.20;;;;;;;;;;5049395;28;20207;-82
2024/02/21 01:27:02;;;;;;;5.68;3.88;;;;;;;;;;5045010;28;20662;-81
2024/02/21 01:29:29;;;;;;;8.85;3.70;;;;;;;;;;5044978;28;20211;-80
2024/02/21 01:31:56;;;;;;;8.18;3.70;;;;;;;;;;5050406;28;20204;-80
2024/02/21 01:34:23;;;;;;;9.38;3.20;;;;;;;;;;5046911;28;20561;-80
2024/02/21 01:36:50;;;;;;;6.55;3.72;;;6.30;99.90;;;;;;5051549;28;20198;-80
2024/02/21 01:39:17;;;;;;;6.05;3.50;;;;;;;;;;5049020;28;20598;-81
2024/02/21 01:41:45;;;;;;;10.65;3.45;;;5.60;99.90;;;;;;5049099;28;20215;-80
2024/02/21 01:44:12;;;;;;;4.28;3.58;;;;;;;;;;5047579;28;20208;-80
2024/02/21 01:46:40;;;;;;;8.20;3.80;;;;;;;;;;5047651;28;20589;-80
2024/02/21 01:49:07;;;;;;;6.28;3.10;;;7.10;99.90;;;;;;5050983;28;20192;-80
2024/02/21 01:51:34;;;;;;;7.93;3.15;;;;;;;;;;5038028;28;20199;-81
2024/02/21 01:54:01;;;;;;;6.15;3.83;;;;;;;;;;5044760;28;20595;-81
2024/02/21 01:56:28;;;;;;;13.85;4.47;;;6.20;99.90;;;;;;5044921;28;20650;-80
2024/02/21 01:58:57;;;;;;;5.65;3.60;;;6.10;99.90;;;;;;5046408;28;20574;-80
2024/02/21 02:01:24;;;;;;;11.80;4.00;;;;;;;;;;5046773;28;20310;-79
2024/02/21 02:03:52;;;;;;;3.58;3.10;;;;;;;;;;5038825;28;20208;-80
2024/02/21 02:06:20;;;;;;;4.97;3.33;;;;;;;;;;5039880;28;20196;-80
2024/02/21 02:08:48;;;;;;;8.85;4.25;;;;;;;;;;5046240;28;20242;-81
2024/02/21 02:11:17;;;;;;;5.10;3.47;;;6.20;99.90;;;;;;5047139;28;20264;-81
2024/02/21 02:13:45;;;;;;;4.50;3.35;;;;;;;;;;5049627;28;20594;-81
2024/02/21 02:16:13;;;;;;;5.40;3.72;;;6.70;99.90;;;;;;5039422;28;20204;-81
2024/02/21 02:18:40;;;;;;;5.13;3.15;;;;;;;;;;5047495;28;20292;-80
2024/02/21 02:21:16;;;;;;;5.00;3.42;;;6.10;99.90;;;;;;5049443;28;20701;-81
2024/02/21 02:23:44;;;;;;;4.80;3.47;;;6.10;99.90;;;;;;5047575;28;20681;-81
2024/02/21 02:26:11;;;;;;;9.13;3.10;;;6.20;99.90;;;;;;5048558;28;20732;-81
2024/02/21 02:28:38;;;;;;;5.90;2.78;;;;;;;;;;5043660;28;20219;-80
2024/02/21 02:31:06;;;;;;;7.53;3.80;;;6.20;99.90;;;;;;5044511;28;20192;-81
2024/02/21 02:33:34;;;;;;;5.80;3.20;;;6.00;99.90;;;;;;5048846;28;20649;-80
2024/02/21 02:36:02;;;;;;;7.03;3.42;;;6.10;99.90;;;;;;5043723;28;20210;-81
2024/02/21 02:38:30;;;;;;;7.05;3.70;;;;;;;;;;5050136;28;20203;-81
2024/02/21 02:41:00;;;;;;;6.13;3.65;;;;;;;;;;5049433;28;20315;-81
2024/02/21 02:43:28;;;;;;;4.43;3.97;;;;;;;;;;5044250;28;20232;-81
2024/02/21 02:45:57;;;;;;;5.35;3.13;;;;;;;;;;5049836;28;20200;-81
2024/02/21 02:48:26;;;;;;;6.80;3.42;;;;;;;;;;5045800;28;20203;-80
2024/02/21 02:50:54;;;;;;;5.20;3.00;;;;;;;;;;5044304;28;20200;-80
2024/02/21 02:53:22;;;;;;;3.47;3.17;;;;;;;;;;5041609;28;20203;-81
2024/02/21 02:55:49;;;;;;;6.80;3.72;;;;;;;;;;5036989;28;20205;-81
2024/02/21 02:58:17;;;;;;;8.52;3.90;;;6.00;99.90;;;;;;5049227;28;20562;-81
2024/02/21 03:00:44;;;;;;;3.60;3.30;;;;;;;;;;5044265;28;20200;-81
2024/02/21 03:03:11;;;;;;;5.65;3.55;;;;;;;;;;5047539;28;20579;-82
2024/02/21 03:05:41;;;;;;;5.25;3.35;;;;;;;;;;5045562;28;20215;-81
2024/02/21 03:08:09;;;;;;;4.80;3.45;;;;;;;;;;5048801;28;20287;-81
2024/02/21 03:10:36;;;;;;;5.80;3.35;;;;;;;;;;5044895;28;20310;-81
2024/02/21 03:13:04;;;;;;;7.28;3.05;;;;;;;;;;5044385;28;20551;-81
2024/02/21 03:15:33;;;;;;;4.72;3.28;;;6.30;99.90;;;;;;5045887;28;20565;-81
2024/02/21 03:18:01;;;;;;;7.45;3.75;;;;;;;;;;5047416;28;20208;-81
2024/02/21 03:20:29;;;;;;;5.22;3.33;;;;;;;;;;5047866;28;20207;-81
2024/02/21 03:22:58;;;;;;;6.65;3.03;;;;;;;;;;5046292;28;20238;-81
2024/02/21 03:25:25;;;;;;;3.80;3.05;;;;;;;;;;5048698;28;20558;-81
2024/02/21 03:27:53;;;;;;;7.47;3.45;;;;;;;;;;5049084;28;20791;-81
2024/02/21 03:30:21;;;;;;;10.25;4.00;;;;;;;;;;5047045;28;20214;-80
2024/02/21 03:32:51;;;;;;;6.82;4.15;;;5.90;99.90;;;;;;5048163;28;20196;-81
2024/02/21 03:35:18;;;;;;;7.28;4.38;;;;;;;;;;5042362;28;20199;-81
2024/02/21 03:37:46;;;;;;;6.18;3.95;;;;;;;;;;5040685;28;20203;-81
2024/02/21 03:40:14;;;;;;;4.05;3.22;;;;;;;;;;5046808;28;20215;-81
2024/02/21 03:42:43;;;;;;;4.15;2.90;;;;;;;;;;5047782;28;20636;-81
2024/02/21 03:45:11;;;;;;;4.50;2.78;;;;;;;;;;5048218;28;20357;-81
2024/02/21 03:47:39;;;;;;;4.53;3.60;;;;;;;;;;5048763;28;20200;-81
2024/02/21 03:50:08;;;;;;;5.55;3.20;;;5.70;99.90;;;;;;5043110;28;20670;-81
2024/02/21 03:52:35;;;;;;;7.40;2.90;;;;;;;;;;5048417;28;20208;-81
2024/02/21 03:55:02;;;;;;;4.65;4.07;;;6.10;99.90;;;;;;5040776;28;20614;-81
2024/02/21 03:57:29;;;;;;;11.60;3.10;;;;;;;;;;5046060;28;20208;-81
2024/02/21 03:59:57;;;;;;;3.13;2.85;;;;;;;;;;5047928;28;20206;-81
2024/02/21 04:02:24;;;;;;;9.23;3.00;;;;;;;;;;5040645;28;20251;-81
2024/02/21 04:04:50;;;;;;;6.47;3.65;;;6.00;99.90;;;;;;5039882;28;20688;-81
2024/02/21 04:07:19;;;;;;;9.18;4.30;;;6.10;99.90;;;;;;5048159;28;20203;-81
2024/02/21 04:09:46;;;;;;;6.97;3.10;;;;;;;;;;5048094;28;20196;-81
2024/02/21 04:12:13;;;;;;;8.90;5.00;;;;;;;;;;5042534;28;20207;-81
2024/02/21 04:14:40;;;;;;;3.53;2.53;;;;;;;;;;5047069;28;20238;-80
2024/02/21 04:17:07;;;;;;;3.17;2.88;;;;;;;;;;5043480;28;20203;-81
2024/02/21 04:19:34;;;;;;;2.97;2.75;;;;;;;;;;5044981;28;20287;-81
2024/02/21 04:22:01;;;;;;;6.18;3.05;;;;;;;;;;5048198;28;20294;-81
2024/02/21 04:24:29;;;;;;;4.40;2.97;;;5.90;99.90;;;;;;5041046;28;20283;-81
2024/02/21 04:26:57;;;;;;;9.38;3.97;;;;;;;;;;5044548;28;20203;-80
2024/02/21 04:29:24;;;;;;;5.20;3.50;;;;;;;;;;5046974;28;20214;-81
2024/02/21 04:31:51;;;;;;;3.90;2.80;;;;;;;;;;5052020;28;20208;-81
2024/02/21 04:34:18;;;;;;;4.60;3.30;;;;;;;;;;5047271;28;20246;-81
2024/02/21 04:36:46;;;;;;;3.10;2.60;;;5.70;99.90;;;;;;5051257;28;20283;-80
2024/02/21 04:39:13;;;;;;;3.22;2.92;;;;;;;;;;5046761;28;20279;-80
2024/02/21 04:41:41;;;;;;;3.45;3.15;;;5.70;99.90;;;;;;5047189;28;20192;-80
2024/02/21 04:44:08;;;;;;;3.90;3.42;;;;;;;;;;5049914;28;20220;-80
2024/02/21 04:46:35;;;;;;;4.38;2.53;;;;;;;;;;5051057;28;20196;-80
2024/02/21 04:49:03;;;;;;;3.55;2.90;;;;;;;;;;5051113;28;20295;-80
2024/02/21 04:51:30;;;;;;;3.42;2.70;;;;;;;;;;5050881;28;20212;-80
2024/02/21 04:53:57;;;;;;;5.32;2.65;;;;;;;;;;5048050;28;20202;-80
2024/02/21 04:56:24;;;;;;;3.50;3.00;;;;;;;;;;5051640;28;20586;-80
2024/02/21 04:58:53;;;;;;;6.07;3.00;;;;;;;;;;5057736;28;20338;-80
2024/02/21 05:01:20;;;;;;;4.35;3.15;;;;;;;;;;5055000;28;20191;-81
2024/02/21 05:03:47;;;;;;;4.35;2.90;;;;;;;;;;5051869;28;20228;-82
2024/02/21 05:06:14;;;;;;;3.60;3.00;;;;;;;;;;5054051;28;20208;-81
2024/02/21 05:08:41;;;;;;;5.45;2.95;;;;;;;;;;5049774;28;20286;-81
2024/02/21 05:11:08;;;;;;;4.15;2.55;;;;;;;;;;5042279;28;20319;-81
2024/02/21 05:13:35;;;;;;;4.32;2.80;;;;;;;;;;5043941;28;20197;-80
2024/02/21 05:16:04;;;;;;;9.95;2.90;;;5.30;99.90;;;;;;5047698;28;20200;-80
2024/02/21 05:18:31;;;;;;;2.20;2.00;;;;;;;;;;5051151;28;20196;-81
2024/02/21 05:20:58;;;;;;;5.53;2.95;;;;;;;;;;5047959;28;20283;-82
2024/02/21 05:23:25;;;;;;;2.92;2.65;;;;;;;;;;5043074;28;20218;-81
2024/02/21 05:25:52;;;;;;;2.50;2.30;;;;;;;;;;5050491;28;20283;-80
2024/02/21 05:28:19;;;;;;;3.08;2.38;;;;;;;;;;5043388;28;20208;-80
2024/02/21 05:30:47;;;;;;;10.45;3.67;;;;;;;;;;5049057;28;20612;-81
2024/02/21 05:33:20;;;;;;;6.57;3.00;;;5.50;99.90;;;;;;5043570;28;20200;-80
2024/02/21 05:35:48;;;;;;;5.35;2.83;;;;;;;;;;5050897;28;20242;-81
2024/02/21 05:38:15;;;;;;;6.25;3.42;;;;;;;;;;5050200;28;20204;-81
2024/02/21 05:40:42;;;;;;;4.00;2.72;;;;;;;;;;5049488;28;20287;-81
2024/02/21 05:43:10;;;;;;;8.98;2.85;;;;;;;;;;5049833;28;20310;-76
2024/02/21 05:45:37;;;;;;;4.90;3.25;;;;;;;;;;5048117;28;20203;-76
2024/02/21 05:48:05;;;;;;;4.35;2.50;;;5.50;99.90;;;;;;5049846;28;20199;-76
2024/02/21 05:50:33;;;;;;;5.63;2.33;;;5.40;99.90;;;;;;5045920;28;20595;-76
2024/02/21 05:53:00;;;;;;;4.03;3.38;;;;;;;;;;5049906;28;20290;-76
2024/02/21 05:55:27;;;;;;;8.05;2.85;;;;;;;;;;5040762;28;20688;-77
2024/02/21 05:57:55;;;;;;;4.75;3.35;;;5.50;99.90;;;;;;5050874;28;20192;-76
2024/02/21 06:00:22;;;;;;;7.57;2.97;;;;;;;;;;5049443;28;20216;-76
2024/02/21 06:02:49;;;;;;;4.60;3.30;;;;;;;;;;5048327;28;20221;-76
2024/02/21 06:05:16;;;;;;;3.83;2.72;;;;;;;;;;5048439;28;20203;-75
2024/02/21 06:07:45;;;;;;;6.00;3.00;;;;;;;;;;5041749;28;20611;-75
2024/02/21 06:10:12;;;;;;;4.45;2.60;;;;;;;;;;5047260;28;20214;-75
2024/02/21 06:12:39;;;;;;;4.13;2.72;;;;;;;;;;5049149;28;20204;-76
2024/02/21 06:15:07;;;;;;;4.47;2.83;;;5.20;99.90;;;;;;5046006;28;20200;-75
2024/02/21 06:17:34;;;;;;;8.57;3.25;;;;;;;;;;5049306;28;20286;-76
2024/02/21 06:20:01;;;;;;;4.70;3.80;;;;;;;;;;5049443;28;20199;-75
2024/02/21 06:22:28;;;;;;;5.57;5.07;;;;;;;;;;5048680;28;20669;-75
2024/02/21 06:24:56;;;;;;;3.38;3.05;;;4.90;99.90;;;;;;5044594;28;20295;-76
2024/02/21 06:27:24;;;;;;;5.72;3.53;;;;;;;;;;5043535;28;20218;-75
2024/02/21 06:29:51;;;;;;;4.65;2.70;;;;;;;;;;5049889;28;20203;-72
2024/02/21 06:32:18;;;;;;;5.55;3.25;;;;;;;;;;5045087;28;20473;-74
2024/02/21 06:34:45;;;;;;;3.25;2.42;;;;;;;;;;5049346;28;20950;-83
2024/02/21 06:37:12;;;;;;;4.35;3.38;;;;;;;;;;5051700;28;20295;-83
2024/02/21 06:39:40;;;;;;;4.35;3.25;;;;;;;;;;5050668;28;20238;-85
2024/02/21 06:42:09;;;;;;;5.35;3.95;;;5.00;99.90;;;;;;5047798;28;20572;-84
2024/02/21 06:44:40;;;;;;;7.85;3.80;;;5.20;99.90;;;;;;5043367;28;20243;-86
2024/02/21 06:47:07;;;;;;;6.28;3.83;;;;;;;;;;5045327;28;20207;-86
2024/02/21 06:49:34;;;;;;;4.28;3.92;;;;;;;;;;5045377;28;20203;-86
2024/02/21 06:52:01;;;;;;;6.80;3.65;;;;;;;;;;5050646;28;20192;-84
2024/02/21 06:54:28;;;;;;;6.28;4.05;;;;;;;;;;5038669;28;20567;-80
2024/02/21 06:56:56;;;;;;;8.07;4.75;;;;;;;;;;5045909;28;20283;-82
2024/02/21 06:59:24;;;;;;;5.78;4.50;;;5.40;99.90;;;;;;5044555;28;20211;-79
2024/02/21 07:01:54;;;;;;;4.72;3.45;;;5.50;99.90;;;;;;5044036;28;20870;-79
2024/02/21 07:04:21;;;;;;;6.30;3.35;;;;;;;;;;5045171;28;20788;-80
2024/02/21 07:06:48;;;;;;;7.80;4.18;;;;;;;;;;5033234;28;20204;-80
2024/02/21 07:09:15;;;;;;;9.65;3.75;;;;;;;;;;5042893;28;20580;-80
2024/02/21 07:11:42;;;;;;;5.30;3.28;;;;;;;;;;5045683;28;20207;-80
2024/02/21 07:14:09;;;;;;;6.47;3.28;;;;;;;;;;5046795;28;20208;-80
2024/02/21 07:16:38;;;;;;;4.80;3.88;;;;;;;;;;5047497;28;21923;-80
2024/02/21 07:19:05;;;;;;;10.90;3.53;;;;;;;;;;5045767;28;20240;-80
2024/02/21 07:21:32;;;;;;;5.65;3.20;;;;;;;;;;5046155;28;20287;-80
2024/02/21 07:23:59;;;;;;;3.60;3.08;;;;;;;;;;5046698;28;20315;-81
2024/02/21 07:26:26;;;;;;;4.93;3.47;;;;;;;;;;5049512;28;20582;-80
2024/02/21 07:28:53;;;;;;;4.65;2.90;;;;;;;;;;5050348;28;20576;-80
2024/02/21 07:31:20;;;;;;;3.65;2.78;;;;;;;;;;5049149;28;20279;-81
2024/02/21 07:33:50;;;;;;;2.75;2.55;;;5.90;99.90;;;;;;5046867;28;20346;-80
2024/02/21 07:36:17;;;;;;;3.53;2.65;;;;;;;;;;5050082;28;20196;-80
2024/02/21 07:38:44;;;;;;;6.03;2.30;;;;;;;;;;5049114;28;20735;-80
2024/02/21 07:41:11;;;;;;;4.53;2.40;;;;;;;;;;5045005;28;20590;-80
2024/02/21 07:43:39;;;;;;;2.70;2.50;;;;;;;;;;5045493;28;20730;-83
2024/02/21 07:46:11;;;;;;;3.17;2.90;;;6.60;99.90;;;;;;5050254;28;20257;-84
2024/02/21 07:48:38;;;;;;;4.00;3.60;;;;;;;;;;5047350;28;20210;-84
2024/02/21 07:51:07;;;;;;;8.00;3.05;;;6.50;99.90;;;;;;5049906;28;20275;-83
2024/02/21 07:53:34;;;;;;;6.45;2.70;;;;;;;;;;5040351;28;20659;-84
2024/02/21 07:56:01;;;;;;;3.03;2.83;;;;;;;;;;5041113;28;20291;-84
2024/02/21 07:58:28;;;;;;;6.88;3.13;;;;;;;;;;5048871;28;20291;-84
2024/02/21 08:00:55;;;;;;;3.95;3.00;;;;;;;;;;5046426;28;20262;-84
2024/02/21 08:03:23;;;;;;;5.72;3.45;;;;;;;;;;5049034;28;20216;-84
2024/02/21 08:05:49;;;;;;;4.38;3.22;;;7.00;99.90;;;;;;5038400;28;20199;-84
2024/02/21 08:08:19;;;;;;;4.75;2.85;;;6.90;99.90;;;;;;5048563;28;20199;-83
2024/02/21 08:10:47;;;;;;;3.72;2.55;;;;;;;;;;5045654;28;20208;-84
2024/02/21 08:13:14;;;;;;;3.38;2.95;;;;;;;;;;5042151;28;20282;-83
2024/02/21 08:15:41;;;;;;;7.40;2.90;;;;;;;;;;5047015;28;20235;-83
2024/02/21 08:18:08;;;;;;;4.80;2.90;;;;;;;;;;5049505;28;20251;-83
2024/02/21 08:20:36;;;;;;;5.00;2.80;;;;;;;;;;5042838;28;20294;-83
2024/02/21 08:23:03;;;;;;;5.32;3.38;;;;;;;;;;5037071;28;20727;-83
2024/02/21 08:25:31;;;;;;;3.67;2.58;;;7.20;99.70;;;;;;5039979;28;20287;-83
2024/02/21 08:27:59;;;;;;;3.50;2.40;;;7.30;99.90;;;;;;5042368;28;20271;-83
2024/02/21 08:30:27;;;;;;;5.00;3.30;;;;;;;;;;5037186;28;20726;-83
2024/02/21 08:32:54;;;;;;;5.68;3.70;;;;;;;;;;5046954;28;20710;-83
2024/02/21 08:35:22;;;;;;;3.35;3.05;;;;;;;;;;5039734;28;20595;-84
2024/02/21 08:37:49;;;;;;;2.70;2.13;;;;;;;;;;5039151;28;20203;-84
2024/02/21 08:40:20;;;;;;;2.77;2.07;;;;;;;;;;5041531;28;20728;-83
2024/02/21 08:42:49;;;;;;;2.77;2.57;;;7.60;98.60;;;;;;5049629;28;20645;-84
2024/02/21 08:45:16;;;;;;;3.20;2.90;;;;;;;;;;5035486;28;21065;-84
2024/02/21 08:47:43;;;;;;;5.10;3.37;;;;;;;;;;5041483;28;20727;-84
2024/02/21 08:50:10;;;;;;;4.07;2.70;;;7.80;99.90;;;;;;5043042;28;20762;-84
2024/02/21 08:52:38;;;;;;;2.93;2.43;;;;;;;;;;5049105;28;20630;-84
2024/02/21 08:55:05;;;;;;;9.73;3.60;;;;;;;;;;5045696;28;20730;-84
2024/02/21 08:57:36;;;;;;;5.43;3.07;;;;;;;;;;5041024;28;21036;-85
2024/02/21 09:00:09;;;;;;;7.63;2.73;;;;;;;;;;5045846;28;20662;-85
2024/02/21 09:02:36;;;;;;;6.83;2.60;;;;;;;;;;5035083;28;20622;-83
2024/02/21 09:05:05;;;;;;;3.70;2.07;;;;;;;;;;5040023;28;20677;-77
2024/02/21 09:07:32;;;;;;;4.57;3.67;;;;;;;;;;5043066;28;20959;-77
2024/02/21 09:09:59;;;;;;;2.30;2.10;;;;;;;;;;5044286;28;20631;-77
2024/02/21 09:12:26;;;;;;;5.80;2.70;;;;;;;;;;5040628;28;20627;-78
2024/02/21 09:14:53;;;;;;;6.13;2.60;;;;;;;;;;5042994;28;20734;-77
2024/02/21 09:17:21;;;;;;;5.00;2.13;;;8.50;98.00;;;;;;5048909;28;20733;-77
2024/02/21 09:19:48;;;;;;;4.30;2.20;;;;;;;;;;5050050;28;21051;-77
2024/02/21 09:22:16;;;;;;;6.63;2.50;;;;;;;;;;5051273;28;20654;-77
2024/02/21 09:24:43;;;;;;;12.00;2.63;;;;;;;;;;5048503;28;20658;-77
2024/02/21 09:27:10;;;;;;;3.00;2.03;;;;;;;;;;5049553;28;20745;-77
2024/02/21 09:29:37;;;;;;;4.03;2.00;;;;;;;;;;5048129;28;20788;-77
2024/02/21 09:32:04;;;;;;;8.67;2.80;;;8.70;96.60;;;;;;5049274;28;20622;-77
2024/02/21 09:34:33;;;;;;;9.53;2.60;;;;;;;;;;5040692;28;20717;-77
2024/02/21 09:37:00;;;;;;;3.77;2.40;;;;;;;;;;5050492;28;20626;-77
2024/02/21 09:39:27;;;;;;;2.00;1.80;;;;;;;;;;5050212;28;21250;-76
2024/02/21 09:41:59;;;;;;;9.10;2.43;;;8.70;97.40;;;;;;5050181;28;20662;-77
2024/02/21 09:44:37;;;;;;;3.67;2.50;;;8.90;98.10;;;;;;5049441;28;20777;-77
2024/02/21 09:47:07;;;;;;;2.37;2.17;;;8.80;97.60;;;;;;5050870;28;20649;-77
2024/02/21 09:49:37;;;;;;;3.53;2.17;;;8.90;98.60;;;;;;5050011;28;21016;-77
2024/02/21 09:52:06;;;;;;;2.63;1.93;;;9.00;98.00;;;;;;5043157;28;20721;-77
2024/02/21 09:54:34;;;;;;;2.20;1.93;;;9.00;98.50;;;;;;5042965;28;21439;-77
2024/02/21 09:57:02;;;;;;;2.40;2.00;;;;;;;;;;5050041;28;20729;-77
2024/02/21 09:59:31;;;;;;;3.10;2.20;;;9.30;97.30;;;;;;5050151;28;20655;-77
2024/02/21 10:02:00;;;;;;;4.60;2.10;;;;;;;;;;5050342;28;20633;-77
2024/02/21 10:04:27;;;;;;;5.50;2.57;;;;;;;;;;5048560;28;20673;-77
2024/02/21 10:06:56;;;;;;;2.10;1.60;;;9.50;97.60;;;;;;5043153;28;20638;-77
2024/02/21 10:09:24;;;;;;;7.33;2.40;;;9.60;97.90;;;;;;5048799;28;20651;-77
2024/02/21 10:11:51;;;;;;;2.33;2.07;;;9.80;95.80;;;;;;5049342;28;20653;-77
2024/02/21 10:14:18;;;;;;;6.47;2.60;;;;;;;;;;5046082;28;20724;-77
2024/02/21 10:16:46;;;;;;;3.23;2.53;;;9.80;96.90;;;;;;5046329;28;20641;-77
2024/02/21 10:19:19;;;;;;;2.33;1.60;;;10.00;93.30;;;;;;5049088;28;20664;-77
2024/02/21 10:22:04;;;;;;;2.07;1.93;;;10.10;96.60;;;;;;5048288;28;20629;-77
2024/02/21 10:24:32;;;;;;;4.80;2.40;;;;;;;;;;5049232;28;20678;-77
2024/02/21 10:27:03;;;;;;;4.67;2.67;;;10.10;92.70;;;;;;5038454;28;20643;-77
2024/02/21 10:29:31;;;;;;;4.50;2.27;;;;;;;;;;5053437;28;20620;-76
2024/02/21 10:32:08;;;;;;;7.00;2.03;;;;;;;;;;5054538;28;20625;-77
2024/02/21 10:34:35;;;;;;;2.27;2.10;;;;;;;;;;5051024;28;20624;-77
2024/02/21 10:37:04;;;;;;;4.17;2.37;;;10.40;96.00;;;;;;5047309;28;20629;-76
2024/02/21 10:39:32;;;;;;;5.83;1.97;;;10.60;95.00;;;;;;5050423;28;20625;-76
2024/02/21 10:42:01;;;;;;;1.80;1.70;;;10.70;95.30;;;;;;5054227;28;20727;-78
2024/02/21 10:44:30;;;;;;;6.23;2.13;;;10.80;94.80;;;;;;5053718;28;20739;-77
2024/02/21 10:46:57;;;;;;;3.63;2.17;;;;;;;;;;5042250;28;20644;-76
2024/02/21 10:49:26;;;;;;;1.50;1.40;;;10.80;94.50;;;;;;5045091;28;20685;-76
2024/02/21 10:51:59;;;;;;;5.17;2.33;;;10.90;93.60;;;;;;5047929;28;20630;-76
2024/02/21 10:54:40;;;;;;;2.67;2.47;;;10.70;94.60;;;;;;5045091;28;20645;-77
2024/02/21 10:57:09;;;;;;;6.53;1.60;;;10.80;94.10;;;;;;5047236;28;20725;-77
2024/02/21 10:59:38;;;;;;;3.50;1.93;;;10.80;92.00;;;;;;5047789;28;20652;-77
2024/02/21 11:02:05;;;;;;;2.50;2.10;;;;;;;;;;5047083;28;20622;-77
2024/02/21 11:04:36;;;;;;;5.93;1.83;;;10.80;92.50;;;;;;5042911;28;21127;-77
2024/02/21 11:07:03;;;;;;;2.50;2.03;;;;;;;;;;5047747;28;20642;-77
2024/02/21 11:09:33;;;;;;;4.30;2.30;;;;;;;;;;5034648;28;20650;-76
2024/02/21 11:12:00;;;;;;;1.60;1.50;;;;;;;;;;5048498;28;20630;-76
2024/02/21 11:14:28;;;;;;;5.70;1.87;;;10.50;94.80;;;;;;5047558;28;20715;-79
2024/02/21 11:16:56;;;;;;;2.20;2.00;;;;;;;;;;5041381;28;20630;-78
2024/02/21 11:19:26;;;;;;;2.80;1.67;;;10.90;92.10;;;;;;5045159;28;20626;-80
2024/02/21 11:21:54;;;;;;;8.40;1.47;;;11.50;93.00;;;;;;5040539;28;20632;-81
2024/02/21 11:24:28;;;;;;;9.40;2.83;;;11.00;91.60;;;;;;5043704;28;20680;-79
2024/02/21 11:26:57;;;;;;;1.97;1.50;;;10.90;90.40;;;;;;5045935;28;20649;-78
2024/02/21 11:29:28;;;;;;;7.10;1.50;;;;;;;;;;5043767;28;20637;-82
2024/02/21 11:31:56;;;;;;;2.93;1.37;;;;;;;;;;5040139;28;20610;-81
2024/02/21 11:34:23;;;;;;;2.47;1.20;;;;;;;;;;5046341;28;20665;-86
2024/02/21 11:36:51;;;;;;;3.07;1.80;;;11.30;90.70;;;;;;5043362;28;20629;-78
2024/02/21 11:39:22;;;;;;;3.27;1.43;;;;;;;;;;5046211;28;20631;-89
2024/02/21 11:42:05;;;;;;;2.30;1.40;;;11.20;90.30;;;;;;5039648;28;20678;-83
2024/02/21 11:44:32;;;;;;;3.53;1.93;;;;;;;;;;5037648;28;21311;-78
2024/02/21 11:47:00;;;;;;;3.73;1.80;;;;;;;;;;5039896;28;20626;-80
2024/02/21 11:49:27;;;;;;;2.47;1.70;;;;;;;;;;5038686;28;20701;-80
2024/02/21 11:52:04;;;;;;;3.87;2.17;;;11.50;86.60;;;;;;5046438;28;20627;-81
2024/02/21 11:54:32;;;;;;;1.70;1.33;;;;;;;;;;5047689;28;21175;-80
2024/02/21 11:56:59;;;;;;;4.37;1.30;;;;;;;;;;5042045;28;20660;-80
2024/02/21 11:59:27;;;;;;;2.50;1.93;;;11.40;87.00;;;;;;5040997;28;20632;-80
2024/02/21 12:01:54;;;;;;;4.80;1.60;;;11.40;84.20;;;;;;5038208;28;20639;-80
2024/02/21 12:04:23;;;;;;;4.50;1.60;;;;;;;;;;5040098;28;20701;-79
2024/02/21 12:06:50;;;;;;;3.23;1.97;;;;;;;;;;5043324;28;20683;-80
2024/02/21 12:09:17;;;;;;;1.87;1.40;;;;;;;;;;5045812;28;20653;-79
2024/02/21 12:11:45;;;;;;;2.30;1.33;;;;;;;;;;5048017;28;20975;-78
2024/02/21 12:14:17;;;;;;;3.33;1.23;;;;;;;;;;5037395;28;20632;-79
2024/02/21 12:16:47;;;;;;;3.13;1.50;;;11.50;87.20;;;;;;5044483;28;20719;-79
2024/02/21 12:19:16;;;;;;;1.67;1.10;;;;;;;;;;5039161;28;20637;-79
2024/02/21 12:21:44;;;;;;;2.13;1.20;;;;;;;;;;5046734;28;20723;-78
2024/02/21 12:24:15;;;;;;;5.43;1.33;;;12.80;78.00;;;;;;5046022;28;20726;-79
2024/02/21 12:26:42;;;;;;;1.63;1.37;;;;;;;;;;5039547;28;20700;-79
2024/02/21 12:29:10;;;;;;;1.47;1.37;;;;;;;;;;5046214;28;21242;-80
2024/02/21 12:31:36;;;;;;;1.27;1.17;;;12.00;73.00;;;;;;5045396;28;20634;-79
2024/02/21 12:34:05;;;;;;;2.20;1.60;;;12.00;75.20;;;;;;5039998;28;20716;-79
2024/02/21 12:36:32;;;;;;;1.90;1.43;;;12.40;76.90;;;;;;5039109;28;20664;-79
2024/02/21 12:38:59;;;;;;;2.10;1.40;;;12.30;80.90;;;;;;5044106;28;21167;-79
2024/02/21 12:41:26;;;;;;;2.60;1.67;;;12.10;76.10;;;;;;5040621;28;21098;-79
2024/02/21 12:43:53;;;;;;;3.93;1.47;;;12.20;74.30;;;;;;5044923;28;20627;-79
2024/02/21 12:46:20;;;;;;;6.03;1.50;;;12.20;72.80;;;;;;5047384;28;20676;-79
2024/02/21 12:48:47;;;;;;;3.07;1.50;;;;;;;;;;5048226;28;20776;-78
2024/02/21 12:51:20;;;;;;;2.43;1.60;;;12.30;73.10;;;;;;5049925;28;20625;-79
2024/02/21 12:53:47;;;;;;;1.67;1.57;;;12.10;73.00;;;;;;5050479;28;21066;-79
2024/02/21 12:56:14;;;;;;;2.57;1.30;;;12.30;72.40;;;;;;5047413;28;20654;-78
2024/02/21 12:58:41;;;;;;;5.30;2.80;;;12.30;73.00;;;;;;5044776;28;20729;-78
2024/02/21 13:01:09;;;;;;;3.03;1.20;;;;;;;;;;5051121;28;20629;-79
2024/02/21 13:03:35;;;;;;;3.60;1.40;;;12.30;69.60;;;;;;5051318;28;20728;-79
2024/02/21 13:06:02;;;;;;;1.80;1.33;;;12.20;71.30;;;;;;5043728;28;20700;-78
2024/02/21 13:08:30;;;;;;;1.17;1.07;;;12.40;69.50;;;;;;5051826;28;20629;-79
2024/02/21 13:10:58;;;;;;;1.80;1.20;;;;;;;;;;5047608;28;20737;-79
2024/02/21 13:13:25;;;;;;;1.83;1.37;;;;;;;;;;5048829;28;20709;-79
2024/02/21 13:15:52;;;;;;;1.73;1.17;;;;;;;;;;5050056;28;20640;-79
2024/02/21 13:18:19;;;;;;;1.60;1.03;;;;;;;;;;5050484;28;20716;-80
2024/02/21 13:20:46;;;;;;;1.67;1.57;;;;;;;;;;5036908;28;21116;-81
2024/02/21 13:23:13;;;;;;;1.30;1.20;;;12.20;72.50;;;;;;5052134;28;20676;-80
2024/02/21 13:25:41;;;;;;;2.50;1.07;;;12.30;70.80;;;;;;5049025;28;20676;-80
2024/02/21 13:28:09;;;;;;;1.37;1.27;;;12.40;70.10;;;;;;5048324;28;20627;-80
2024/02/21 13:30:36;;;;;;;1.20;1.10;;;12.40;68.90;;;;;;5049171;28;20639;-80
2024/02/21 13:33:03;;;;;;;3.00;1.60;;;12.40;68.40;;;;;;5043348;28;20631;-80
2024/02/21 13:35:30;;;;;;;2.07;1.87;;;12.40;67.70;;;;;;5047590;28;20634;-80
2024/02/21 13:37:57;;;;;;;2.70;1.43;;;12.60;68.80;;;;;;5046798;28;20670;-80
2024/02/21 13:40:25;;;;;;;2.50;1.60;;;12.70;68.20;;;;;;5048577;28;20741;-80
2024/02/21 13:42:54;;;;;;;1.40;1.30;;;12.60;66.50;;;;;;5047977;28;20626;-80
2024/02/21 13:45:20;;;;;;;1.93;1.40;;;12.40;65.70;;;;;;5039164;28;20674;-80
2024/02/21 13:47:48;;;;;;;0.90;0.87;;;12.50;68.70;;;;;;5040890;28;20738;-80
2024/02/21 13:50:15;;;;;;;1.80;1.20;;;12.50;70.30;;;;;;5054091;28;20700;-80
2024/02/21 13:52:43;;;;;;;2.43;1.60;;;12.70;65.70;;;;;;5053967;28;20740;-81
2024/02/21 13:55:11;;;;;;;1.87;1.27;;;12.60;68.10;;;;;;5038959;28;20641;-81
2024/02/21 13:57:39;;;;;;;2.30;1.40;;;12.50;68.80;;;;;;5059241;28;20636;-80
2024/02/21 14:00:10;;;;;;;1.20;1.10;;;12.40;67.90;;;;;;5059803;28;20630;-81
2024/02/21 14:02:37;;;;;;;1.43;1.00;;;12.50;67.90;;;;;;5043536;28;20644;-81